Pagina principale
METAR-TAF:

METAR-TAF

Aeroporti :

São Vicente, Capo Verde

latitudine: 16-49-59N, longitudine: 25-03-25W, altezza: 20 m

Osservazione

Il bollettino è stato emesso 23 minuti fa, alle 14:00 UTC
Vento 11 kt da est/nord-est, variando fra nord/nord-est e est
Temperature 28°C
Umidità 28%
Pressione 1015 hPa
Visibilità: 3900 m
foschia

METAR: GVSV 191400Z 06011KT 020V080 3900 HZ NSC 28/08 Q1015 NOSIG

Ora: 13:23 (14:23 UTC)

Previsione

Il bollettino è stato emesso 3 ore e 23 minuti fa, alle 11:00 UTC
Previsione valida dal 19 alle 12 UTC al 20 alle 18 UTC
Vento 10 kt da est/nord-est
Visibilità: 3500 m
foschia
Probabilità 30% :
Temporaneamente
dal 20 alle 12 UTC al 20 alle 18 UTC
Visibilità: 6000 m

TAF: GVSV 191100Z 1912/2018 07010KT 3500 HZ NSC PROB30 TEMPO 2012/2018 6000

Osservazioni e previsioni meteorologiche di più di 4000 aeroporti (messaggi METAR e TAF).

Le stazioni disponibili sono rappresentate dai dischi gialli e rossi sulla carta.

Puntare il mouse per vedere il nome della stazione.

Clicca sopra per visualizzare le osservazioni e previsioni meteorologiche.

Per cambiare la mappa : fare clic sui pulsanti verdi con una croce nera per ingrandire, il pulsante verde con un trattino per diminuire, o sulla freccia verde per le mappe adiacenti.


METAR-TAF: